createdAt,value
2022-11-29T00:01:03.117Z,12.60
2022-11-29T00:03:30.437Z,12.60
2022-11-29T00:05:57.486Z,12.70
2022-11-29T00:08:24.567Z,12.70
2022-11-29T00:10:51.443Z,12.70
2022-11-29T00:13:18.440Z,12.70
2022-11-29T00:15:45.288Z,12.70
2022-11-29T00:18:12.043Z,12.70
2022-11-29T00:20:39.647Z,12.70
2022-11-29T00:23:06.468Z,12.70
2022-11-29T00:25:33.323Z,12.70
2022-11-29T00:28:00.102Z,12.70
2022-11-29T00:30:27.797Z,12.70
2022-11-29T00:32:54.687Z,12.70
2022-11-29T00:35:21.618Z,12.70
2022-11-29T00:37:48.497Z,12.70
2022-11-29T00:40:15.453Z,12.70
2022-11-29T00:42:42.279Z,12.70
2022-11-29T00:45:09.517Z,12.70
2022-11-29T00:47:36.413Z,12.70
2022-11-29T00:50:04.196Z,12.70
2022-11-29T00:52:31.018Z,12.70
2022-11-29T00:54:57.824Z,12.70
2022-11-29T00:57:24.723Z,12.70
2022-11-29T00:59:51.500Z,12.70
2022-11-29T01:02:18.358Z,12.70
2022-11-29T01:04:45.445Z,12.70
2022-11-29T01:07:12.604Z,12.70
2022-11-29T01:09:39.457Z,12.70
2022-11-29T01:12:06.512Z,12.70
2022-11-29T01:14:33.339Z,12.70
2022-11-29T01:17:00.180Z,12.70
2022-11-29T01:19:27.052Z,12.70
2022-11-29T01:21:54.284Z,12.70
2022-11-29T01:24:22.305Z,12.70
2022-11-29T01:26:49.109Z,12.70
2022-11-29T01:29:15.877Z,12.70
2022-11-29T01:31:42.834Z,12.70
2022-11-29T01:34:10.652Z,12.70
2022-11-29T01:36:37.511Z,12.70
2022-11-29T01:39:05.886Z,12.70
2022-11-29T01:41:35.315Z,12.70
2022-11-29T01:44:14.137Z,12.70
2022-11-29T01:46:43.970Z,12.70
2022-11-29T01:49:21.495Z,12.70
2022-11-29T01:51:55.523Z,12.70
2022-11-29T01:54:22.590Z,12.70
2022-11-29T01:56:51.796Z,12.70
2022-11-29T01:59:25.462Z,12.70
2022-11-29T02:01:52.963Z,12.70
2022-11-29T02:04:20.201Z,12.70
2022-11-29T02:06:47.123Z,12.70
2022-11-29T02:09:22.612Z,12.70
2022-11-29T02:12:08.612Z,12.70
2022-11-29T02:14:41.339Z,12.70
2022-11-29T02:17:39.120Z,12.70
2022-11-29T02:20:06.304Z,12.70
2022-11-29T02:23:05.191Z,12.70
2022-11-29T02:25:41.499Z,12.70
2022-11-29T02:28:20.317Z,12.70
2022-11-29T02:31:24.935Z,12.70
2022-11-29T02:34:04.280Z,12.70
2022-11-29T02:36:36.953Z,12.70
2022-11-29T02:39:23.388Z,12.70
2022-11-29T02:41:59.578Z,12.70
2022-11-29T02:44:43.667Z,12.70
2022-11-29T02:47:18.028Z,12.70
2022-11-29T02:50:34.843Z,12.70
2022-11-29T02:53:10.181Z,12.70
2022-11-29T02:56:12.939Z,12.70
2022-11-29T02:59:05.087Z,12.70
2022-11-29T03:01:41.071Z,12.70
2022-11-29T03:04:23.493Z,12.70
2022-11-29T03:07:09.106Z,12.70
2022-11-29T03:09:53.476Z,12.70
2022-11-29T03:12:47.894Z,12.70
2022-11-29T03:15:30.403Z,12.70
2022-11-29T03:18:29.109Z,12.70
2022-11-29T03:21:14.437Z,12.70
2022-11-29T03:24:13.310Z,12.70
2022-11-29T03:26:49.702Z,12.70
2022-11-29T03:29:22.074Z,12.70
2022-11-29T03:32:10.075Z,12.70
2022-11-29T03:34:36.949Z,12.70
2022-11-29T03:37:18.269Z,12.70
2022-11-29T03:39:45.066Z,12.70
2022-11-29T03:42:22.625Z,12.70
2022-11-29T03:45:04.826Z,12.70
2022-11-29T03:47:40.072Z,12.70
2022-11-29T03:50:14.672Z,12.70
2022-11-29T03:52:50.626Z,12.70
2022-11-29T03:55:58.478Z,12.70
2022-11-29T03:58:47.176Z,12.70
2022-11-29T04:01:29.078Z,12.70
2022-11-29T04:04:14.579Z,12.70
2022-11-29T04:07:03.052Z,12.70
2022-11-29T04:09:41.500Z,12.70
2022-11-29T04:12:17.131Z,12.70
2022-11-29T04:15:15.561Z,12.70
2022-11-29T04:17:54.481Z,12.60
2022-11-29T04:20:59.180Z,12.70
2022-11-29T04:23:54.847Z,12.60
2022-11-29T04:27:12.561Z,12.60
2022-11-29T04:29:51.582Z,12.70
2022-11-29T04:32:26.207Z,12.70
2022-11-29T04:35:14.918Z,12.70
2022-11-29T04:37:59.780Z,12.70
2022-11-29T04:40:35.799Z,12.70
2022-11-29T04:43:14.675Z,12.70
2022-11-29T04:46:13.050Z,12.70
2022-11-29T04:49:09.978Z,12.70
2022-11-29T04:51:49.189Z,12.70
2022-11-29T04:54:40.477Z,12.70
2022-11-29T04:57:11.507Z,12.70
2022-11-29T04:59:44.551Z,12.70
2022-11-29T05:02:33.354Z,12.70
2022-11-29T05:05:21.529Z,12.70
2022-11-29T05:07:53.285Z,12.70
2022-11-29T05:10:23.324Z,12.70
2022-11-29T05:13:18.888Z,12.70
2022-11-29T05:15:53.227Z,12.70
2022-11-29T05:18:38.834Z,12.70
2022-11-29T05:21:14.334Z,12.70
2022-11-29T05:23:57.110Z,12.80
2022-11-29T05:26:49.152Z,12.70
2022-11-29T05:29:25.627Z,12.70
2022-11-29T05:32:14.063Z,12.80
2022-11-29T05:35:22.572Z,12.70
2022-11-29T05:37:52.624Z,12.70
2022-11-29T05:40:34.442Z,12.80
2022-11-29T05:43:07.272Z,12.80
2022-11-29T05:45:58.253Z,12.70
2022-11-29T05:48:37.281Z,12.70
2022-11-29T05:51:20.227Z,12.70
2022-11-29T05:53:59.117Z,12.70
2022-11-29T05:56:54.913Z,12.70
2022-11-29T05:59:26.462Z,12.70
2022-11-29T06:02:21.255Z,12.70
2022-11-29T06:04:57.421Z,12.70
2022-11-29T06:07:36.981Z,12.70
2022-11-29T06:10:11.477Z,12.70
2022-11-29T06:12:39.323Z,12.70
2022-11-29T06:15:48.627Z,12.70
2022-11-29T06:18:52.690Z,12.70
2022-11-29T06:21:25.278Z,12.70
2022-11-29T06:24:26.331Z,12.70
2022-11-29T06:27:21.786Z,12.70
2022-11-29T06:30:09.416Z,12.70
2022-11-29T06:32:51.747Z,12.70
2022-11-29T06:35:34.999Z,12.70
2022-11-29T06:38:20.339Z,12.70
2022-11-29T06:40:47.618Z,12.70
2022-11-29T06:43:14.868Z,12.70
2022-11-29T06:45:49.098Z,12.70
2022-11-29T06:48:25.718Z,12.70
2022-11-29T06:51:14.704Z,12.70
2022-11-29T06:54:00.214Z,12.70
2022-11-29T06:57:02.393Z,12.70
2022-11-29T06:59:38.318Z,12.70
2022-11-29T07:02:30.985Z,12.70
2022-11-29T07:05:11.154Z,12.70
2022-11-29T07:07:38.669Z,12.70
2022-11-29T07:10:11.950Z,12.70
2022-11-29T07:12:41.827Z,12.60
2022-11-29T07:15:16.052Z,12.60
2022-11-29T07:17:53.409Z,12.60
2022-11-29T07:20:49.279Z,12.60
2022-11-29T07:23:31.247Z,12.60
2022-11-29T07:26:19.059Z,12.60
2022-11-29T07:29:04.752Z,12.60
2022-11-29T07:32:03.064Z,12.60
2022-11-29T07:35:00.299Z,12.60
2022-11-29T07:37:59.396Z,12.60
2022-11-29T07:40:37.768Z,12.60
2022-11-29T07:43:26.233Z,12.60
2022-11-29T07:45:54.114Z,12.60
2022-11-29T07:48:20.918Z,12.60
2022-11-29T07:50:48.334Z,12.60
2022-11-29T07:53:20.132Z,12.60
2022-11-29T07:55:47.899Z,12.60
2022-11-29T07:58:16.677Z,12.60
2022-11-29T08:00:44.795Z,12.60
2022-11-29T08:03:12.066Z,12.60
2022-11-29T08:05:39.458Z,12.60
2022-11-29T08:08:07.218Z,12.60
2022-11-29T08:10:35.529Z,12.60
2022-11-29T08:13:02.419Z,12.60
2022-11-29T08:15:29.342Z,12.60
2022-11-29T08:17:56.396Z,12.60
2022-11-29T08:20:23.621Z,12.60
2022-11-29T08:22:58.498Z,12.60
2022-11-29T08:25:27.590Z,12.60
2022-11-29T08:27:54.785Z,12.60
2022-11-29T08:30:22.452Z,12.60
2022-11-29T08:32:51.719Z,12.60
2022-11-29T08:35:20.645Z,12.60
2022-11-29T08:37:47.478Z,12.60
2022-11-29T08:40:14.936Z,12.60
2022-11-29T08:42:42.052Z,12.60
2022-11-29T08:45:09.696Z,12.60
2022-11-29T08:47:37.309Z,12.60
2022-11-29T08:50:14.560Z,12.60
2022-11-29T08:53:05.556Z,12.60
2022-11-29T08:55:40.313Z,12.60
2022-11-29T08:58:10.080Z,12.60
2022-11-29T09:00:37.507Z,12.60
2022-11-29T09:03:24.943Z,12.60
2022-11-29T09:05:52.586Z,12.60
2022-11-29T09:08:20.195Z,12.60
2022-11-29T09:10:47.530Z,12.60
2022-11-29T09:13:14.679Z,12.60
2022-11-29T09:15:43.612Z,12.60
2022-11-29T09:18:10.722Z,12.60
2022-11-29T09:20:37.523Z,12.60
2022-11-29T09:23:04.539Z,12.60
2022-11-29T09:25:31.387Z,12.60
2022-11-29T09:28:01.818Z,12.70
2022-11-29T09:30:31.409Z,12.60
2022-11-29T09:33:05.088Z,12.60
2022-11-29T09:35:32.523Z,12.60
2022-11-29T09:37:59.603Z,12.70
2022-11-29T09:40:52.553Z,12.70
2022-11-29T09:43:32.772Z,12.70
2022-11-29T09:46:12.980Z,12.70
2022-11-29T09:49:18.099Z,12.70
2022-11-29T09:51:53.085Z,12.70
2022-11-29T09:54:37.888Z,12.70
2022-11-29T09:57:10.379Z,12.70
2022-11-29T09:59:42.907Z,12.80
2022-11-29T10:02:31.595Z,12.80
2022-11-29T10:05:12.084Z,12.80
2022-11-29T10:07:48.394Z,12.80
2022-11-29T10:10:18.496Z,12.80
2022-11-29T10:13:01.516Z,12.80
2022-11-29T10:15:31.494Z,12.90
2022-11-29T10:18:18.678Z,12.80
2022-11-29T10:20:49.260Z,12.90
2022-11-29T10:23:29.465Z,12.90
2022-11-29T10:25:58.298Z,12.90
2022-11-29T10:28:32.079Z,12.90
2022-11-29T10:31:23.303Z,12.90
2022-11-29T10:33:50.840Z,12.90
2022-11-29T10:36:31.403Z,13.00
2022-11-29T10:39:03.230Z,12.90
2022-11-29T10:41:30.139Z,13.00
2022-11-29T10:43:59.586Z,13.00
2022-11-29T10:46:36.045Z,13.00
2022-11-29T10:49:06.057Z,13.00
2022-11-29T10:51:34.796Z,13.00
2022-11-29T10:54:29.867Z,13.00
2022-11-29T10:56:57.535Z,13.00
2022-11-29T10:59:27.180Z,13.00
2022-11-29T11:01:54.690Z,13.00
2022-11-29T11:04:35.533Z,13.00
2022-11-29T11:07:06.049Z,13.00
2022-11-29T11:09:44.131Z,13.00
2022-11-29T11:12:18.880Z,13.10
2022-11-29T11:14:47.105Z,13.10
2022-11-29T11:17:26.374Z,13.10
2022-11-29T11:20:02.478Z,13.00
2022-11-29T11:22:31.277Z,13.10
2022-11-29T11:25:05.727Z,13.10
2022-11-29T11:27:34.217Z,13.10
2022-11-29T11:30:03.656Z,13.10
2022-11-29T11:32:30.732Z,13.10
2022-11-29T11:35:00.305Z,13.10
2022-11-29T11:37:35.784Z,13.10
2022-11-29T11:40:30.540Z,13.10
2022-11-29T11:43:01.419Z,13.10
2022-11-29T11:45:36.683Z,13.20
2022-11-29T11:48:15.471Z,13.20
2022-11-29T11:50:49.966Z,13.20
2022-11-29T11:53:25.280Z,13.20
2022-11-29T11:55:57.991Z,13.20
2022-11-29T11:58:28.983Z,13.20
2022-11-29T12:01:06.588Z,13.20
2022-11-29T12:03:59.178Z,13.10
2022-11-29T12:06:46.571Z,13.10
2022-11-29T12:09:25.203Z,13.20
2022-11-29T12:12:00.420Z,13.20
2022-11-29T12:14:42.236Z,13.20
2022-11-29T12:17:33.155Z,13.20
2022-11-29T12:20:09.324Z,13.20
2022-11-29T12:23:01.032Z,13.20
2022-11-29T12:25:33.273Z,13.20
2022-11-29T12:28:00.299Z,13.20
2022-11-29T12:30:27.502Z,13.20
2022-11-29T12:33:06.288Z,13.20
2022-11-29T12:36:07.261Z,13.20
2022-11-29T12:39:23.245Z,13.20
2022-11-29T12:42:16.108Z,13.20
2022-11-29T12:45:14.236Z,13.30
2022-11-29T12:47:52.820Z,13.30
2022-11-29T12:50:30.849Z,13.20
2022-11-29T12:53:09.355Z,13.30
2022-11-29T12:56:13.699Z,13.30
2022-11-29T12:59:00.370Z,13.30
2022-11-29T13:02:15.794Z,13.30
2022-11-29T13:05:03.260Z,13.30
2022-11-29T13:07:38.903Z,13.30
2022-11-29T13:10:42.615Z,13.30
2022-11-29T13:13:15.498Z,13.30
2022-11-29T13:15:52.095Z,13.30
2022-11-29T13:18:30.644Z,13.30
2022-11-29T13:21:02.277Z,13.40
2022-11-29T13:26:40.645Z,13.40
2022-11-29T13:29:15.728Z,13.40
2022-11-29T13:31:43.697Z,13.40
2022-11-29T13:34:14.602Z,13.40
2022-11-29T13:37:08.042Z,13.40
2022-11-29T13:40:12.451Z,13.40
2022-11-29T13:43:02.049Z,13.40
2022-11-29T13:45:39.661Z,13.40
2022-11-29T13:48:56.897Z,13.40
2022-11-29T13:51:29.684Z,13.40
2022-11-29T13:54:00.085Z,13.50
2022-11-29T13:56:32.662Z,13.50
2022-11-29T13:59:01.254Z,13.40
2022-11-29T14:01:28.754Z,13.50
2022-11-29T14:04:01.721Z,13.50
2022-11-29T14:06:38.874Z,13.50
2022-11-29T14:09:23.891Z,13.50
2022-11-29T14:12:26.825Z,13.50
2022-11-29T14:15:23.694Z,13.50
2022-11-29T14:17:55.666Z,13.50
2022-11-29T14:20:25.835Z,13.50
2022-11-29T14:23:04.884Z,13.50
2022-11-29T14:25:58.811Z,13.50
2022-11-29T14:28:39.113Z,13.50
2022-11-29T14:31:10.038Z,13.50
2022-11-29T14:33:52.044Z,13.50
2022-11-29T14:36:46.127Z,13.60
2022-11-29T14:39:30.910Z,13.60
2022-11-29T14:42:00.717Z,13.60
2022-11-29T14:44:29.982Z,13.60
2022-11-29T14:47:20.197Z,13.60
2022-11-29T14:49:47.347Z,13.60
2022-11-29T14:52:14.091Z,13.60
2022-11-29T14:55:15.703Z,13.60
2022-11-29T14:57:51.344Z,13.60
2022-11-29T15:00:30.054Z,13.60
2022-11-29T15:03:01.365Z,13.60
2022-11-29T15:05:44.998Z,13.60
2022-11-29T15:08:51.855Z,13.60
2022-11-29T15:11:46.698Z,13.60
2022-11-29T15:14:23.203Z,13.60
2022-11-29T15:17:07.970Z,13.60
2022-11-29T15:19:53.535Z,13.60
2022-11-29T15:22:48.314Z,13.70
2022-11-29T15:25:19.451Z,13.70
2022-11-29T15:27:58.060Z,13.70
2022-11-29T15:30:36.815Z,13.60
2022-11-29T15:33:07.097Z,13.60
2022-11-29T15:35:36.048Z,13.60
2022-11-29T15:38:03.224Z,13.60
2022-11-29T15:40:35.268Z,13.60
2022-11-29T15:43:22.316Z,13.60
2022-11-29T15:45:57.138Z,13.60
2022-11-29T15:48:28.166Z,13.60
2022-11-29T15:51:30.093Z,13.70
2022-11-29T15:54:18.355Z,13.60
2022-11-29T15:56:55.198Z,13.70
2022-11-29T15:59:38.394Z,13.60
2022-11-29T16:02:17.277Z,13.60
2022-11-29T16:04:47.147Z,13.60
2022-11-29T16:07:15.025Z,13.60
2022-11-29T16:09:48.903Z,13.70
2022-11-29T16:12:17.422Z,13.70
2022-11-29T16:14:56.567Z,13.60
2022-11-29T16:17:34.953Z,13.60
2022-11-29T16:20:22.716Z,13.60
2022-11-29T16:23:12.751Z,13.60
2022-11-29T16:26:15.009Z,13.60
2022-11-29T16:28:47.521Z,13.70
2022-11-29T16:31:23.326Z,13.60
2022-11-29T16:33:52.483Z,13.70
2022-11-29T16:36:24.238Z,13.60
2022-11-29T16:39:20.402Z,13.60
2022-11-29T16:42:05.316Z,13.60
2022-11-29T16:44:38.240Z,13.60
2022-11-29T16:47:17.531Z,13.60
2022-11-29T16:49:45.036Z,13.60
2022-11-29T16:52:32.416Z,13.60
2022-11-29T16:54:59.790Z,13.60
2022-11-29T16:57:28.444Z,13.70
2022-11-29T16:59:55.253Z,13.60
2022-11-29T17:02:22.502Z,13.60
2022-11-29T17:04:50.968Z,13.60
2022-11-29T17:07:30.726Z,13.60
2022-11-29T17:09:59.104Z,13.60
2022-11-29T17:12:25.880Z,13.60
2022-11-29T17:14:52.676Z,13.60
2022-11-29T17:17:19.929Z,13.60
2022-11-29T17:19:46.811Z,13.60
2022-11-29T17:22:13.658Z,13.60
2022-11-29T17:24:46.187Z,13.50
2022-11-29T17:27:14.809Z,13.50
2022-11-29T17:29:41.627Z,13.50
2022-11-29T17:32:08.810Z,13.50
2022-11-29T17:34:36.341Z,13.50
2022-11-29T17:37:03.548Z,13.60
2022-11-29T17:39:30.331Z,13.60
2022-11-29T17:41:57.226Z,13.60
2022-11-29T17:44:24.011Z,13.50
2022-11-29T17:46:51.190Z,13.50
2022-11-29T17:49:19.086Z,13.50
2022-11-29T17:51:54.156Z,13.50
2022-11-29T17:54:24.683Z,13.50
2022-11-29T17:56:52.788Z,13.50
2022-11-29T17:59:20.488Z,13.50
2022-11-29T18:01:47.561Z,13.40
2022-11-29T18:04:14.813Z,13.40
2022-11-29T18:06:41.909Z,13.40
2022-11-29T18:09:11.491Z,13.40
2022-11-29T18:11:47.625Z,13.40
2022-11-29T18:14:24.262Z,13.40
2022-11-29T18:16:53.125Z,13.50
2022-11-29T18:19:22.219Z,13.50
2022-11-29T18:21:49.704Z,13.40
2022-11-29T18:24:16.998Z,13.40
2022-11-29T18:26:44.065Z,13.50
2022-11-29T18:29:11.679Z,13.50
2022-11-29T18:31:41.799Z,13.40
2022-11-29T18:34:10.147Z,13.40
2022-11-29T18:36:43.151Z,13.40
2022-11-29T18:39:13.986Z,13.50
2022-11-29T18:41:47.156Z,13.40
2022-11-29T18:44:16.337Z,13.40
2022-11-29T18:46:43.955Z,13.40
2022-11-29T18:49:16.083Z,13.40
2022-11-29T18:51:44.976Z,13.40
2022-11-29T18:54:14.063Z,13.40
2022-11-29T18:56:42.439Z,13.40
2022-11-29T18:59:17.310Z,13.40
2022-11-29T19:01:46.178Z,13.40
2022-11-29T19:04:23.447Z,13.40
2022-11-29T19:06:50.307Z,13.40
2022-11-29T19:09:22.631Z,13.40
2022-11-29T19:11:50.345Z,13.40
2022-11-29T19:14:17.815Z,13.50
2022-11-29T19:16:46.678Z,13.40
2022-11-29T19:19:13.976Z,13.40
2022-11-29T19:21:41.679Z,13.40
2022-11-29T19:24:15.947Z,13.40
2022-11-29T19:26:44.937Z,13.40
2022-11-29T19:29:13.240Z,13.40
2022-11-29T19:31:40.547Z,13.40
2022-11-29T19:34:07.495Z,13.40
2022-11-29T19:36:38.088Z,13.40
2022-11-29T19:39:05.044Z,13.40
2022-11-29T19:41:36.488Z,13.40
2022-11-29T19:44:06.031Z,13.50
2022-11-29T19:46:36.119Z,13.40
2022-11-29T19:49:05.914Z,13.40
2022-11-29T19:51:34.040Z,13.40
2022-11-29T19:54:03.242Z,13.40
2022-11-29T19:56:31.420Z,13.40
2022-11-29T19:58:59.908Z,13.40
2022-11-29T20:01:37.722Z,13.40
2022-11-29T20:04:07.459Z,13.40
2022-11-29T20:06:34.523Z,13.40
2022-11-29T20:09:02.520Z,13.40
2022-11-29T20:11:30.442Z,13.40
2022-11-29T20:14:02.284Z,13.40
2022-11-29T20:16:31.045Z,13.40
2022-11-29T20:18:59.116Z,13.40
2022-11-29T20:21:29.170Z,13.40
2022-11-29T20:24:02.176Z,13.40
2022-11-29T20:26:31.436Z,13.40
2022-11-29T20:28:58.942Z,13.40
2022-11-29T20:31:26.203Z,13.40
2022-11-29T20:33:59.238Z,13.40
2022-11-29T20:36:57.906Z,13.40
2022-11-29T20:39:50.043Z,13.40
2022-11-29T20:42:29.674Z,13.40
2022-11-29T20:45:06.423Z,13.40
2022-11-29T20:47:44.827Z,13.40
2022-11-29T20:50:31.604Z,13.40
2022-11-29T20:53:48.443Z,13.40
2022-11-29T20:56:15.324Z,13.30
2022-11-29T20:58:42.341Z,13.40
2022-11-29T21:01:09.322Z,13.30
2022-11-29T21:03:36.666Z,13.30
2022-11-29T21:06:05.409Z,13.30
2022-11-29T21:08:33.710Z,13.30
2022-11-29T21:11:10.329Z,13.30
2022-11-29T21:13:38.238Z,13.30
2022-11-29T21:16:06.112Z,13.30
2022-11-29T21:18:34.734Z,13.30
2022-11-29T21:21:12.296Z,13.30
2022-11-29T21:24:01.270Z,13.30
2022-11-29T21:26:49.906Z,13.30
2022-11-29T21:29:18.083Z,13.30
2022-11-29T21:31:46.999Z,13.30
2022-11-29T21:34:14.121Z,13.30
2022-11-29T21:36:41.753Z,13.30
2022-11-29T21:39:12.769Z,13.30
2022-11-29T21:41:39.773Z,13.30
2022-11-29T21:44:07.895Z,13.30
2022-11-29T21:46:35.730Z,13.30
2022-11-29T21:49:02.700Z,13.30
2022-11-29T21:51:29.617Z,13.30
2022-11-29T21:53:56.400Z,13.30
2022-11-29T21:56:23.261Z,13.30
2022-11-29T21:58:50.110Z,13.30
2022-11-29T22:01:19.165Z,13.30
2022-11-29T22:03:46.645Z,13.30
2022-11-29T22:06:18.316Z,13.30
2022-11-29T22:08:45.107Z,13.30
2022-11-29T22:11:17.179Z,13.20
2022-11-29T22:14:03.448Z,13.20
2022-11-29T22:16:30.551Z,13.20
2022-11-29T22:18:57.409Z,13.20
2022-11-29T22:21:24.313Z,13.20
2022-11-29T22:23:52.501Z,13.20
2022-11-29T22:26:19.311Z,13.20
2022-11-29T22:28:46.112Z,13.20
2022-11-29T22:31:13.342Z,13.20
2022-11-29T22:33:40.161Z,13.20
2022-11-29T22:36:09.115Z,13.20
2022-11-29T22:38:36.521Z,13.20
2022-11-29T22:41:06.214Z,13.20
2022-11-29T22:43:33.547Z,13.20
2022-11-29T22:46:15.486Z,13.10
2022-11-29T22:48:44.040Z,13.10
2022-11-29T22:51:24.923Z,13.10
2022-11-29T22:53:56.380Z,13.10
2022-11-29T22:56:26.478Z,13.10
2022-11-29T22:58:53.322Z,13.10
2022-11-29T23:01:22.425Z,13.20
2022-11-29T23:03:53.136Z,13.10
2022-11-29T23:06:20.962Z,13.10
2022-11-29T23:08:49.119Z,13.20
2022-11-29T23:11:18.345Z,13.10
2022-11-29T23:13:46.122Z,13.10
2022-11-29T23:16:21.089Z,13.20
2022-11-29T23:18:48.550Z,13.10
2022-11-29T23:21:26.483Z,13.20
2022-11-29T23:23:56.651Z,13.10
2022-11-29T23:26:29.765Z,13.10
2022-11-29T23:28:58.292Z,13.10
2022-11-29T23:31:25.312Z,13.10
2022-11-29T23:33:52.173Z,13.10
2022-11-29T23:36:19.163Z,13.10
2022-11-29T23:38:47.901Z,13.10
2022-11-29T23:41:15.071Z,13.10
2022-11-29T23:43:42.451Z,13.10
2022-11-29T23:46:21.104Z,13.10
2022-11-29T23:48:48.458Z,13.10
2022-11-29T23:51:16.036Z,13.10
2022-11-29T23:53:43.112Z,13.10
2022-11-29T23:56:16.140Z,13.10
2022-11-29T23:58:43.889Z,13.10
